• Join FlightAware (Why Join?)
  • Login
  • US Flag 
11:58AM EDT


 

Airport Tracker/Info


-or-


 

Live Flight TrackerFlight Track Log ✈ N589H ✈ 17-Jul-2014 ✈ KCKB - KDAB

Flight Track Log - Related Links

Times and Time Zones

All times are in EDT time to prevent confusion due to time zone crossing. See the N589H flight status page for this flight to view local times or setup timezone preferences in your user account.

Time Position Orientation Groundspeed Altitude Reporting Facility
EDT Latitude Longitude Course Direction KTS MPH feet Rate Location/Type
11:11AM 39.1753 -80.2583 187° South 194 223 6,700  Level Cleveland Center
11:12AM 39.1200 -80.2703 190° South 199 229 9,000 2,100 Climbing Cleveland Center
11:13AM 39.0650 -80.2811 189° South 199 229 11,100 1,860 Climbing Cleveland Center
11:14AM 39.0075 -80.2939 190° South 202 232 12,900 1,980 Climbing Cleveland Center
11:15AM 38.7655 -80.2767 184° South  Level Estimated
11:15AM 38.9347 -80.3044 186° South 213 245 15,300  Level Cleveland Center
11:16AM 38.6768 -80.2848 187° South  Level Estimated
11:16AM 38.8725 -80.3156 188° South 220 253 17,200  Level Cleveland Center
11:17AM 38.8053 -80.3261 187° South 236 272 18,200 840 Climbing Cleveland Center
11:18AM 38.7289 -80.3383 187° South 270 311 19,000 360 Climbing Cleveland Center
11:19AM 38.6436 -80.3494 186° South 302 348 19,000 60 Level Cleveland Center
11:20AM 38.5556 -80.3658 188° South 317 365 19,200 1,140 Climbing Cleveland Center
11:21AM 38.4558 -80.3803 186° South 302 348 21,400 1,920 Climbing Cleveland Center
11:22AM 38.3711 -80.3986 190° South 295 339 23,500 1,560 Climbing Washington Center
11:23AM 38.2975 -80.4097 187° South 277 319 24,900 1,380 Climbing Washington Center
11:24AM 38.2222 -80.4181 185° South 277 319 26,300 1,260 Climbing Washington Center
11:25AM 38.1469 -80.4236 183° South 277 319 27,500 1,080 Climbing Washington Center
11:26AM 38.0717 -80.4294 183° South 277 319 28,600 960 Climbing Washington Center
11:27AM 37.9939 -80.4375 185° South 277 319 29,500 960 Climbing Washington Center
11:28AM 37.9189 -80.4406 182° South 277 319 30,600 960 Climbing Washington Center
11:29AM 37.8433 -80.4489 185° South 277 319 31,500 720 Climbing Washington Center
11:30AM 37.7742 -80.4550 184° South 277 319 32,100 420 Climbing Washington Center
11:31AM 37.6947 -80.4603 183° South 277 319 32,400 360 Climbing Washington Center
11:32AM 37.6133 -80.4656 183° South 283 326 32,900 480 Climbing Washington Center
11:34AM 37.4472 -80.4761 183° South 309 356 33,900 300 Climbing Atlanta Center
11:35AM 37.3622 -80.4853 185° South 309 356 33,900  Level Atlanta Center
11:36AM 37.2769 -80.4892 182° South 309 356 33,900  Level Atlanta Center
11:37AM 37.1875 -80.4958 183° South 309 356 33,900  Level Atlanta Center
11:38AM 37.0958 -80.5025 183° South 314 361 33,900  Level Atlanta Center
11:39AM 37.0086 -80.5117 185° South 314 361 33,900  Level Atlanta Center
11:40AM 36.9189 -80.5156 182° South 319 367 34,000  Climbing Atlanta Center
11:41AM 36.8294 -80.5222 183° South 319 367 33,900 -60 Descending Atlanta Center
11:42AM 36.7422 -80.5286 183° South 319 367 33,900  Level Atlanta Center
11:43AM 36.6547 -80.5350 183° South 324 373 33,900  Level Atlanta Center
11:44AM 36.5653 -80.5417 183° South 324 373 33,900  Level Atlanta Center
11:45AM 36.4758 -80.5506 185° South 324 373 33,900  Level Atlanta Center
11:46AM 36.3883 -80.5544 182° South 324 373 33,900  Level Atlanta Center
11:47AM 36.2989 -80.5608 183° South 324 373 33,900  Level Atlanta Center
11:48AM 36.2114 -80.5672 183° South 324 373 33,900  Level Atlanta Center
11:49AM 36.1242 -80.5736 183° South 324 373 33,900  Level Atlanta Center
11:50AM 36.0367 -80.5800 183° South 324 373 33,900  Level Atlanta Center
11:51AM 35.9367 -80.5892 184° South 324 373 33,900  Level Atlanta Center
11:52AM 35.8450 -80.5931 182° South 330 380 33,900  Level Atlanta Center
11:53AM 35.7578 -80.6019 185° South 325 374 33,900  Level Atlanta Center
11:54AM 35.6683 -80.6108 185° South 325 374 33,900  Level Atlanta Center
11:55AM 35.5767 -80.6147 182° South 325 374 33,900  Level Atlanta Center
11:56AM 35.4869 -80.6211 183° South 325 374 33,900  Level Atlanta Center
11:57AM 35.3975 -80.6272 183° South 325 374 33,900  Level Atlanta Center
11:58AM 35.3061 -80.6386 186° South 325 374 33,900  Level Atlanta Center
11:59AM 35.2144 -80.6450 183° South 325 374 33,900  Level Atlanta Center
12:01PM 35.0267 -80.6594 184° South 327 376 33,900  Level Jacksonville Center
12:02PM 34.9350 -80.6692 185° South 327 376 33,900  Level Jacksonville Center
12:03PM 34.8453 -80.6717 181° South 327 376 33,900  Level Jacksonville Center
12:04PM 34.7578 -80.6814 185° South 327 376 33,900  Level Jacksonville Center
12:05PM 34.6661 -80.6864 183° South 327 376 33,900  Level Jacksonville Center
12:06PM 34.5767 -80.6911 182° South 327 376 33,900  Level Jacksonville Center
12:07PM 34.4808 -80.7011 185° South 332 382 33,900  Level Jacksonville Center
12:09PM 34.2956 -80.7208 183° South 335 386 33,900  Level Jacksonville Center
12:10PM 34.2078 -80.7181 179° South 327 376 33,900  Level Jacksonville Center
12:11PM 34.1161 -80.7253 184° South 332 382 33,900  Level Jacksonville Center
12:12PM 34.0244 -80.7303 183° South 332 382 33,900  Level Jacksonville Center
12:13PM 33.9328 -80.7375 184° South 327 376 33,900  Level Jacksonville Center
12:14PM 33.8411 -80.7447 184° South 327 376 33,900  Level Jacksonville Center
12:15PM 33.7494 -80.7519 184° South 327 376 33,900  Level Jacksonville Center
12:16PM 33.6597 -80.7592 184° South 327 376 33,900  Level Jacksonville Center
12:17PM 33.5681 -80.7639 182° South 327 376 33,900  Level Jacksonville Center
12:18PM 33.4764 -80.7711 184° South 327 376 33,900  Level Jacksonville Center
12:19PM 33.3847 -80.7806 185° South 327 376 33,900  Level Jacksonville Center
12:20PM 33.2931 -80.7928 186° South 327 376 33,900  Level Jacksonville Center
12:21PM 33.2036 -80.8072 188° South 327 376 33,900  Level Jacksonville Center
12:22PM 33.1097 -80.8194 186° South 332 382 33,900  Level Jacksonville Center
12:23PM 33.0203 -80.8314 186° South 332 382 33,900  Level Jacksonville Center
12:24PM 32.9267 -80.8458 187° South 332 382 33,900  Level Jacksonville Center
12:25PM 32.8244 -80.8581 186° South 332 382 33,900  Level Jacksonville Center
12:26PM 32.7350 -80.8700 186° South 332 382 33,900  Level Jacksonville Center
12:27PM 32.6411 -80.8819 186° South 332 382 33,900 -660 Level Jacksonville Center
12:28PM 32.5475 -80.8939 186° South 346 398 32,600 -1,500 Descending Jacksonville Center
12:29PM 32.4453 -80.9083 187° South 368 423 31,000 -1,500 Descending Jacksonville Center
12:30PM 32.3536 -80.9228 188° South 368 423 29,600 -1,440 Descending Jacksonville Center
12:31PM 32.2433 -80.9375 186° South 368 423 28,200 -1,200 Descending Jacksonville Center
12:32PM 32.1433 -80.9494 186° South 368 423 27,200 -1,020 Descending Jacksonville Center
12:33PM 32.0536 -80.9636 188° South 368 423 26,200 -1,080 Descending Jacksonville Center
12:34PM 31.9433 -80.9781 186° South 368 423 25,100 -1,080 Descending Jacksonville Center
12:35PM 31.8411 -80.9925 187° South 368 423 24,100 -660 Descending Jacksonville Center
12:36PM 31.7558 -81.0039 186° South 368 423 23,800 -720 Descending Jacksonville Center
12:37PM 31.6475 -81.0183 186° South 363 418 22,700 -900 Descending Jacksonville Center
12:38PM 31.5600 -81.0297 186° South 363 418 22,000 -360 Descending Jacksonville Center
12:39PM 31.4558 -81.0467 188° South 350 403 22,000  Level Jacksonville Center
12:40PM 31.3600 -81.0581 186° South 350 403 22,000  Level Jacksonville Center
12:41PM 31.2725 -81.0719 188° South 350 403 22,000  Level Jacksonville Center
12:42PM 31.1786 -81.0811 185° South 350 403 22,000 -180 Level Jacksonville Center
12:43PM 31.0828 -81.0928 186° South 350 403 21,700 -1,380 Descending Jacksonville Center
12:44PM 30.9869 -81.1067 187° South 355 409 19,300 -2,340 Descending Jacksonville Center
12:45PM 30.8931 -81.1231 189° South 350 403 17,100 -1,680 Descending Jacksonville Center
12:46PM 30.8033 -81.1319 185° South 345 397 16,000 -600 Descending Jacksonville Center
12:47PM 30.7117 -81.1456 187° South 338 389 16,000  Level Jacksonville Center
12:48PM 30.6200 -81.1544 185° South 333 383 16,000  Level Jacksonville Center
12:49PM 30.5175 -81.1467 176° South 328 377 16,000  Level Jacksonville Center
12:50PM 30.4236 -81.1411 177° South 328 377 16,000  Level Jacksonville Center
12:51PM 30.3419 -81.1331 175° South 328 377 16,000  Level Jacksonville Center
12:52PM 30.2397 -81.1278 177° South 334 384 16,000  Level Jacksonville Center
12:53PM 30.1456 -81.1222 177° South 334 384 16,000 -540 Level Jacksonville Center
12:54PM 30.0536 -81.1144 176° South 334 384 15,000 -1,140 Descending Jacksonville Center
12:55PM 29.9617 -81.1114 178° South 329 379 13,800 -1,320 Descending Jacksonville Center
12:56PM 29.9389 -81.1094 176° South 324 373 13,400 -1,200 Descending Jacksonville Center
12:56PM 29.8742 -81.1058 177° South 329 379 12,600 -1,140 Descending Jacksonville Center
12:57PM 29.8511 -81.1036 175° South 319 367 12,300 -840 Descending Jacksonville Center
12:57PM 29.7883 -81.1025 179° South 324 373 11,800 -1,020 Descending Jacksonville Center
12:58PM 29.7569 -81.0983 173° South 311 358 11,300 -1,500 Descending Jacksonville Center
12:58PM 29.7028 -81.0944 176° South 319 367 10,300 -1,620 Descending Jacksonville Center
12:59PM 29.6733 -81.0928 177° South 305 351 9,700 -1,740 Descending Jacksonville Center
12:59PM 29.6192 -81.0889 176° South 309 356 8,600 -1,620 Descending Jacksonville Center
01:00PM 29.5897 -81.0869 177° South 294 338 8,100 3,360 Descending Jacksonville Center
01:00PM 29.5397 -81.0833 176° South 302 348 12,000 -1,500 Climbing Jacksonville Center
01:01PM 29.5083 -81.0814 177° South 280 322 6,600 -6,240 Descending Jacksonville Center
01:01PM 29.4686 -81.0772 175° South 291 335 5,800 -1,500 Descending Jacksonville Center
01:02PM 29.4289 -81.0756 178° South 273 314 5,100 -1,320 Descending Jacksonville Center
01:02PM 29.3933 -81.0739 178° South 286 329 4,500 -1,140 Descending Jacksonville Center
01:03PM 29.3558 -81.0794 187° South 269 310 4,000 -540 Descending Jacksonville Center
01:03PM 29.3186 -81.0872 190° South 276 318 4,000  Level Jacksonville Center
01:04PM 29.2811 -81.0975 193° South 264 304 4,000  Level Jacksonville Center
01:04PM 29.2539 -81.1028 190° South 263 303 4,000  Level Jacksonville Center
01:05PM 29.2336 -81.1317 231° Southwest 208 239 4,000 -720 Level Jacksonville Center
01:06PM 29.2008 -81.1844 235° Southwest 205 236 3,000 -480 Descending Jacksonville Center
01:07PM 29.1619 -81.2375 230° Southwest 190 219 3,000 -540 Level Jacksonville Center
01:08PM 29.1292 -81.2856 232° Southwest 222 255 1,900 -720 Descending Jacksonville Center
01:09PM 29.1036 -81.2481 128° Southeast 179 206 1,600 -180 Descending Jacksonville Center
01:10PM 29.1236 -81.1931 67° East 188 216 1,600 -240 Level Jacksonville Center
01:11PM 29.1461 -81.1428 63° Northeast 153 176 1,200 -600 Descending Jacksonville Center
01:12PM 29.1622 -81.0997 67° East 153 176 500 -720 Descending Jacksonville Center
01:14PM 29.1667 -81.0500 76° East  Level FlightAware Approximate
01:21PM 29.1799 -81.0581 76° East  Level Estimated
01:22PM 29.1799 -81.0581 252° West  Level Estimated
01:23PM 29.1799 -81.0581 252° West  Level Estimated